Arthur Freitas

Scout - Bragantino
20 Feb 2028
Sunday
Process

Personality

Adaptability (9) Ambition (6) Controversy (16) Loyalty (10) Pressure (12) Professionalism (16) Sportsmanship (10) Temperament (18)

Profile

Coaching Style Democratic
License Continental C
Determination 11
Man Management 9
Motivating 5
Discipline 14
Job Satisfaction
100%
Fatigue
0%
Role Scout
Wage 60.9K p/w
Contract 14.03.2029

Performance

Behaviour Good
Training Effectiveness
54%
Player Development
55%
Injury Prevention
65%
Tactical Implementation
60%

Recent Events

Attended a recruitment meeting now
Recommended a transfer target now
Attended a recruitment meeting 7d ago
Recommended a transfer target 7d ago
Recommended a transfer target 7d ago
Attended a recruitment meeting 7d ago
Recommended a transfer target 14d ago
Attended a recruitment meeting 14d ago

Currently Monitoring

241
Player Club Status Ability Confidence Watched Last Observed Latest Vote
Lucas Ramon Sport Recife Active 123 / 120 72% 1 03.12.2027 Approve
Griffin Yow New England Revolution Active 124 / 123 40% 1 30.11.2027 -
Rodrigo Garro Corinthians Active 146 / 142 40% 1 30.11.2027 -
Eduardo Felicíssimo Sporting CP Active 112 / 133 40% 5 29.11.2027 -
Ayden Heaven Luton Town Active 153 / 154 40% 5 29.11.2027 -
Myles Lewis-Skelly Birmingham Active 147 / 165 40% 3 29.11.2027 -
Christos Mouzakitis Hull City Active 142 / 152 40% 3 28.11.2027 -
João Teixeira Porto Active 108 / 125 40% 1 28.11.2027 -
Maclyn Biokpo Jenewari Rivers United Active 95 / 107 40% 1 28.11.2027 -
Alejo Veliz Bahia Active 131 / 134 40% 1 28.11.2027 -
Daniel Costa Sporting CP Active 105 / 108 40% 2 25.11.2027 -
Mauro Carrizo Atlético Tucumán Active 100 / 113 40% 1 25.11.2027 -
Élohim Kaboré Hammarby Active 113 / 116 40% 5 24.11.2027 -
Axel Kouamé AIK Active 104 / 117 40% 2 24.11.2027 -
Jhon Durán Al-Nassr Active 138 / 146 40% 1 24.11.2027 -
Marco Miori Alvarado Active 107 / 114 40% 3 22.11.2027 -
Daniel Karlsbakk Sarpsborg 08 Active 123 / 121 40% 2 21.11.2027 -
Liam Delap Nottingham Forest Active 159 / 152 40% 1 21.11.2027 -
Tiziano Dornell Danubio Active 109 / 118 40% 1 20.11.2027 -
Hosea Michael Remo Stars Active 84 / 94 40% 5 19.11.2027 -
Ignacio Fernández Boston River Active 85 / 101 40% 1 19.11.2027 -
Caleb Yirenkyi Coventry City Active 147 / 154 40% 6 18.11.2027 -
Daniel Banjaqui Benfica Active 128 / 127 40% 4 18.11.2027 -
Mikkel Hope Haugesund Active 90 / 115 40% 1 18.11.2027 -
Luciano Inverso Rentistas Active 115 / 118 40% 4 15.11.2027 -
Matheus Nascimento FC Dallas Active 129 / 118 40% 2 15.11.2027 -
William Osula Wrexham Active 139 / 129 40% 1 15.11.2027 -
Kevin Kelsy Portland Timbers Active 113 / 119 40% 2 12.11.2027 -
Oswaldo Valencia Arema Active 98 / 109 40% 1 12.11.2027 -
Luis Otávio Colorado Rapids Active 100 / 126 40% 2 10.11.2027 -
Agustín Ruberto River Plate Active 119 / 131 40% 4 09.11.2027 -
Lucas Carrizo Plaza Colonia Active 122 / 118 40% 3 09.11.2027 -
Facundo de León Progreso Active 113 / 115 40% 2 09.11.2027 -
Archie Gray Derby County Active 141 / 160 40% 5 07.11.2027 -
Enzo Cabrera Danubio Active 110 / 113 40% 3 06.11.2027 -
Jalal Abdullai Molde Active 126 / 111 40% 1 06.11.2027 -
Miguel Figueiredo Cesena Active 117 / 121 40% 1 06.11.2027 -
Josh King Chelsea Active 149 / 151 40% 1 06.11.2027 -
Tiago Freitas Benfica Active 112 / 120 40% 2 04.11.2027 -
Gift Udoh Ikorodu City Active 91 / 94 40% 2 04.11.2027 -
Marvelous Freedom Ikorodu City Active 80 / 95 40% 3 01.11.2027 -
Armindo Sieb Los Angeles Football Club Active 136 / 127 40% 1 01.11.2027 -
Tyson Pearce St. Louis CITY SC Active 94 / 93 40% 1 29.10.2027 -
Hervin Goyes Deportivo Pasto Active 111 / 117 40% 1 29.10.2027 -
Harbor Miller LA Galaxy Active 86 / 95 40% 1 27.10.2027 -
Josh Nichols Tranmere Rovers Active 118 / 128 40% 1 27.10.2027 -
Elias Hoff Melkersen Stromsgodset Active 118 / 111 40% 2 26.10.2027 -
Ezekiel Kwame Alladoh Philadelphia Union Active 113 / 117 40% 1 26.10.2027 -
Ruben van Bommel Ferencvaros Active 133 / 138 40% 1 24.10.2027 -
Taha Ayari AIK Active 118 / 115 40% 1 24.10.2027 -
Evgeniy Malashevich Dinamo Brest Active 112 / 100 40% 1 24.10.2027 -
Archie Goodwin Charlotte Football Club Active 115 / 115 40% 3 23.10.2027 -
Frederik Ihler IF Elfsborg Active 117 / 112 40% 1 21.10.2027 -
CJ Fodrey Austin FC Active 96 / 96 40% 1 20.10.2027 -
Uroš Kojić AGMK Active 105 / 99 40% 1 20.10.2027 -
Godwin Oham Warri Wolves Active 82 / 81 40% 2 19.10.2027 -
Souza Tottenham Active 130 / 130 40% 1 19.10.2027 -
Juan Morán Godoy Cruz Active 114 / 115 40% 1 18.10.2027 -
Dennis Gjengaar Valerenga Active 122 / 125 40% 1 17.10.2027 -
Figueiredo Sampaio Correa Active 86 / 95 40% 2 15.10.2027 -
Mads Bomholt Stabaek Active 109 / 108 40% 1 15.10.2027 -
João Fonseca Benfica Active 107 / 109 40% 1 13.10.2027 -
Dominik Chong Qui Atlanta United FC Active 97 / 92 40% 1 13.10.2027 -
Ricky Atletico Venezuela Active 99 / 100 40% 1 13.10.2027 -
Kauã Moraes Cruzeiro Active 122 / 123 40% 1 12.10.2027 -
Esteban de Lima Tacuarembo Active 97 / 104 40% 1 06.10.2027 -
Johan Manzambi Newcastle United Active 146 / 147 40% 1 06.10.2027 -
Fredi Bahia Active 108 / 108 72% 1 12.07.2027 Approve
Bento Al-Nassr Active 139 / 124 40% 1 31.05.2027 Needs More Info
Thomas De Bruyne Mouscron Active 117 / 137 40% 1 31.05.2027 -
Matteo Rizzo Cosenza Active 108 / 105 40% 1 31.05.2027 -
Hector Ramirez Newcastle United Active 157 / 152 40% 2 30.05.2027 -
Teden Mengi Luton Town Active 117 / 119 40% 1 30.05.2027 -
Giacomo Raspadori Atalanta Active 158 / 136 40% 2 28.05.2027 -
Morgan Whittaker Middlesbrough Active 143 / 137 40% 1 28.05.2027 -
Jacob Ramsey Newcastle United Active 144 / 143 40% 3 27.05.2027 -
Anton Stach Leeds United Active 155 / 156 40% 1 27.05.2027 -
Adrien Truffert Bournemouth Active 160 / 147 40% 1 27.05.2027 -
Léo Scienza Southampton Active 141 / 126 40% 2 25.05.2027 -
Tyler Adams Bournemouth Active 161 / 145 40% 1 25.05.2027 -
Zaïd BafdilI Sporting CP Active 83 / 106 40% 6 24.05.2027 -
Leandro Martins Benfica Active 91 / 107 40% 3 24.05.2027 -
Gonçalo Oliveira Benfica Active 115 / 122 40% 2 24.05.2027 -
Callum Hudson-Odoi Nottingham Forest Active 151 / 160 40% 1 24.05.2027 -
Mats Wieffer Brighton Active 148 / 150 40% 3 22.05.2027 -
Sorba Thomas Stoke City Active 124 / 138 40% 1 22.05.2027 -
Ethan Galbraith Swansea City Active 137 / 143 40% 1 22.05.2027 -
Marcus Edwards Burnley Active 142 / 143 40% 2 21.05.2027 -
David Brooks Bournemouth Active 150 / 142 40% 1 21.05.2027 -
Yehor Yarmoliuk Brentford Active 155 / 160 40% 2 20.05.2027 -
Nico González Newcastle United Active 164 / 171 40% 1 20.05.2027 -
Leif Davis Ipswich Town Active 129 / 137 40% 1 20.05.2027 -
Malick Thiaw West Ham United Active 152 / 158 40% 1 18.05.2027 -
Adam Randell Bristol City Active 125 / 132 40% 1 18.05.2027 -
Juanlu Bournemouth Active 148 / 159 40% 1 18.05.2027 -
Kazunari Kita Real Sociedad Active 89 / 115 40% 2 17.05.2027 -
Sascha Britschgi Padova Active 124 / 127 40% 1 17.05.2027 -
Darryl Bakola Padova Active 104 / 120 40% 1 17.05.2027 -
Assane Diao Lazio Active 152 / 151 40% 1 17.05.2027 -
Nicolas Jackson Aston Villa Active 148 / 146 40% 1 17.05.2027 -
Kiernan Dewsbury-Hall Everton Active 145 / 146 40% 1 16.05.2027 -
Dennis Cirkin Queens Park Rangers Active 131 / 125 40% 2 14.05.2027 -
Jake O'Brien Everton Active 153 / 142 40% 2 14.05.2027 -
Sven Botman Newcastle United Active 164 / 167 40% 1 14.05.2027 -
Amine Adli Bournemouth Active 139 / 142 40% 1 13.05.2027 -
Carlos Vicente Birmingham Active 150 / 151 40% 1 13.05.2027 -
Amadou Onana Aston Villa Active 148 / 151 40% 2 12.05.2027 -
James Garner Everton Active 147 / 145 40% 1 11.05.2027 -
Nicolò Rovella Lazio Active 162 / 141 40% 1 11.05.2027 -
Jacques Ekomié Wrexham Active 138 / 122 40% 3 09.05.2027 -
Welington Southampton Active 123 / 133 40% 1 09.05.2027 -
Tom Fellows Southampton Active 142 / 129 40% 2 07.05.2027 -
Murillo Nottingham Forest Active 152 / 146 40% 1 07.05.2027 -
Sidny Lopes Cabral Trabzonspor Active 130 / 127 40% 1 07.05.2027 -
Ilyas Ansah Hull City Active 123 / 136 40% 4 03.05.2027 -
Georginio Rutter Brighton Active 151 / 154 40% 1 03.05.2027 -
Mikkel Damsgaard Brentford Active 145 / 148 40% 2 02.05.2027 -
Donyell Malen AS Roma Active 152 / 153 40% 1 01.05.2027 -
Ryan Sessegnon Fulham Active 158 / 157 40% 1 01.05.2027 -
Matías Gómez Granada Active 118 / 125 40% 3 30.04.2027 -
Ronwen Phiri Platinum Stars Active 87 / 104 40% 1 29.04.2027 -
Christ Inao Oulaï Fiorentina Active 134 / 129 40% 1 29.04.2027 -
Carlos Alcaraz Everton Active 142 / 146 40% 1 27.04.2027 -
Dango Ouattara Brentford Active 147 / 148 40% 1 27.04.2027 -
Luís Henrique Inter Active 146 / 146 40% 1 26.04.2027 -
Roberto Fernández Braga Active 142 / 139 40% 2 25.04.2027 -
Kevin Vazquez Cruz Azul Active 128 / 151 40% 3 23.04.2027 -
Martim Fernandes Porto Active 144 / 145 40% 3 23.04.2027 -
Tomás Araújo Benfica Active 153 / 155 40% 3 20.04.2027 -
Alberto Costa Porto Active 150 / 148 40% 2 19.04.2027 -
Pau Víctor AVS Active 145 / 131 40% 1 19.04.2027 -
Valery Académico de Viseu Active 128 / 130 40% 3 14.04.2027 -
Jan Bürger Gillingham Active 121 / 118 40% 1 14.04.2027 -
Luke McNally Bristol City Active 129 / 123 40% 1 14.04.2027 -
Francisco Moura Lusitânia Lourosa Active 129 / 132 40% 2 12.04.2027 -
Soungoutou Magassa West Ham United Active 127 / 142 40% 1 12.04.2027 -
José Neto Moreirense Active 116 / 116 40% 2 10.04.2027 -
João Simões Sporting CP Active 133 / 150 40% 4 08.04.2027 -
Noah Sadiki Sunderland Active 142 / 158 40% 1 08.04.2027 -
Ramón Juárez Club America Active 143 / 135 40% 1 08.04.2027 -
Ernie Weaver AFC Wimbledon Active 106 / 110 40% 4 06.04.2027 -
Omar Campos Cruz Azul Active 139 / 136 40% 2 06.04.2027 -
Keagan Tau Ajax Cape Town Active 85 / 97 40% 3 06.04.2027 -
Richard Ledezma Guadalajara Active 132 / 129 40% 1 06.04.2027 -
Riley Owen Trento Active 96 / 95 40% 1 06.04.2027 -
Daniel Vernattus Metalist Active 93 / 104 40% 2 05.04.2027 -
Martim Cunha Porto Active 88 / 104 40% 2 05.04.2027 -
Davide Bartesaghi AC Milan Active 133 / 137 40% 1 01.04.2027 -
Derry Murkin Derby County Active 130 / 134 40% 1 01.04.2027 -
Tariq Lamptey Queens Park Rangers Active 128 / 146 40% 1 30.03.2027 -
Harry Clarke Preston Active 118 / 136 40% 1 30.03.2027 -
Milan van Ewijk Mansfield Town Active 123 / 127 40% 1 30.03.2027 -
Oumar Solet Udinese Active 139 / 157 40% 1 28.03.2027 -
Jofre Torrents Ajax Active 133 / 139 40% 2 27.03.2027 -
Amadou Niang Al Ain Active 109 / 128 40% 1 26.03.2027 -
James Dornelly Peterborough United Active 96 / 112 40% 2 24.03.2027 -
Percy Jali Free State Stars Active 100 / 87 40% 1 24.03.2027 -
Khalis Merah Toulouse FC Active 118 / 118 40% 2 23.03.2027 -
David Ozoh Derby County Active 122 / 135 40% 1 22.03.2027 -
Gonçalo Inácio Sporting CP Active 155 / 151 40% 2 21.03.2027 -
Shea Charles Southampton Active 146 / 146 40% 1 21.03.2027 -
Andrea Carboni Monza Active 140 / 133 40% 1 21.03.2027 -
Iván Fresneda Sporting CP Active 137 / 139 40% 3 20.03.2027 -
Aidan Morris Middlesbrough Active 130 / 136 40% 1 19.03.2027 -
Christian Krasnodar Active 147 / 144 40% 1 19.03.2027 -
Lewis Ferguson Bologna Active 147 / 152 40% 1 18.03.2027 -
Sergi Altimira Sporting CP Active 140 / 140 40% 1 18.03.2027 -
Toby Collyer West Bromwich Albion Active 133 / 124 40% 1 17.03.2027 -
Victor Froholdt Porto Active 143 / 163 40% 2 24.02.2027 -
Dylan Lawlor Cardiff City Active 105 / 129 40% 1 17.02.2027 -
Breno Bidon Corinthians Active 124 / 139 40% 1 05.02.2027 -
Bastien Meupiyou Alverca Active 125 / 112 40% 1 01.02.2027 -
Oliver Skipp Leicester City Active 134 / 137 40% 1 30.11.2026 -
Taichi Fukui Arouca Active 122 / 137 40% 1 30.11.2026 -
Leo Castledine Middlesbrough Active 125 / 118 40% 5 29.11.2026 -
Facundo Colidio Vasco da Gama Active 138 / 122 40% 2 28.11.2026 -
Vinícius Lopes Santa Clara Active 135 / 132 40% 4 27.11.2026 -
Gustavo Silva Vitoria Guimaraes Active 124 / 120 40% 3 27.11.2026 -
Ianis Stoica Estrela da Amadora Active 103 / 109 40% 2 26.11.2026 -
Dodi Lukébakio Benfica Active 143 / 130 40% 1 26.11.2026 -
Zé Leite Leixões Active 107 / 115 40% 3 25.11.2026 -
Arthur Cabral Botafogo Active 120 / 122 40% 2 25.11.2026 -
Carlos Vinícius Grêmio Active 133 / 144 40% 1 25.11.2026 -
Peter Shalulile Mamelodi Sundowns Active 143 / 118 40% 2 24.11.2026 -
Roméo Beney Famalicao Active 110 / 104 40% 2 23.11.2026 -
Senny Mayulu Paris Saint-Germain Active 136 / 162 40% 1 23.11.2026 -
Martín Tejón Maritimo Active 107 / 124 40% 2 21.11.2026 -
Negueba Mirassol Active 121 / 129 40% 1 21.11.2026 -
Ricardo Horta Braga Active 135 / 139 40% 1 20.11.2026 -
Pedro Raul Corinthians Active 128 / 122 40% 1 20.11.2026 -
Kelian Baruti Liamba Estoril Praia Active 84 / 85 40% 3 19.11.2026 -
Jalen Blesa Rio Ave Active 122 / 128 40% 1 17.11.2026 -
Mateo Cassierra Atlético Mineiro Active 132 / 122 40% 1 16.11.2026 -
Alfonso Trezza Arouca Active 118 / 108 40% 3 13.11.2026 -
Gabriel Jesus Barcelona Active 152 / 163 40% 2 11.11.2026 -
Neymar Santos Active 155 / 138 40% 1 11.11.2026 -
Rocco Vata Watford Active 133 / 122 40% 2 09.11.2026 -
Paulo Moreira Farense Active 119 / 130 40% 2 09.11.2026 -
Alan Varela Porto Active 154 / 135 40% 1 09.11.2026 -
Will Lankshear Middlesbrough Active 129 / 136 40% 2 08.11.2026 -
Kasra Taheri Sepahan Active 117 / 110 40% 1 08.11.2026 -
Víctor Guzmán Sporting CP Active 82 / 105 40% 2 05.11.2026 -
Figueiredo Alverca Active 125 / 113 40% 3 04.11.2026 -
Ozziel Herrera Tigres Active 139 / 111 40% 1 04.11.2026 -
André Silva Tondela Active 138 / 126 40% 2 03.11.2026 -
Lewis Morgan SuperSport United Active 137 / 113 40% 2 02.11.2026 -
Zeno Debast Sporting CP Active 148 / 141 40% 1 29.10.2026 -
Dara O'Shea Ipswich Town Active 128 / 123 40% 1 29.10.2026 -
Sikou Niakaté Braga Active 138 / 143 40% 1 29.10.2026 -
Gabriel Veron Porto Active 138 / 131 40% 3 27.10.2026 -
Francisco Álvarez Argentinos Juniors Active 127 / 127 40% 1 27.10.2026 -
André Lacximicant Estoril Praia Active 125 / 111 40% 1 25.10.2026 -
Heung-Min Son Los Angeles Football Club Active 148 / 144 40% 1 23.10.2026 -
Kévin Denkey FC Cincinnati Active 135 / 122 40% 1 19.10.2026 -
Dawda Camara Alverca Active 131 / 127 40% 2 16.10.2026 -
Tommy Conway Middlesbrough Active 115 / 117 40% 1 16.10.2026 -
Jonás Luna Santa Clara Active 112 / 120 40% 3 15.10.2026 -
Markus Jensen Nacional Active 100 / 115 40% 2 14.10.2026 -
Dylan Cabral Arsenal Active 92 / 109 40% 1 13.10.2026 -
Youssoufa Moukoko FC Copenhagen Active 124 / 143 40% 1 13.10.2026 -
Santiago González Tigre Active 124 / 130 40% 1 11.10.2026 -
Rafael Navarro St. Louis CITY SC Active 122 / 136 40% 1 10.10.2026 -
Florentino Luís Ipswich Town Active 148 / 140 40% 1 08.10.2026 -
Juan Pablo Freytes Fluminense Active 134 / 130 40% 1 08.10.2026 -
Kevin Álvarez Club America Active 132 / 135 40% 1 07.10.2026 -
Adnan Courtois KV Oostende Active 138 / 120 40% 1 29.09.2026 -
Fally Mayulu Arouca Active 104 / 126 40% 1 29.09.2026 -
Francesco Pio Esposito Inter Active 135 / 136 40% 1 20.09.2026 -
Darren Yapi Colorado Rapids Active 103 / 116 40% 1 17.09.2026 -
Renzo Machado Liverpool Montevideo Active 112 / 126 40% 1 12.09.2026 -
Mathis Jangeal Famalicao Active 85 / 97 40% 1 10.09.2026 -
José Manuel López Palmeiras Active 141 / 145 40% 1 09.09.2026 -
Tadeo Allende Inter Miami CF Active 116 / 122 40% 1 09.09.2026 -
Dilan Godoy Vélez Active 104 / 114 40% 2 08.09.2026 -
Luca Koleosho Paris FC Active 122 / 134 40% 1 07.09.2026 -
Rudi Almeida Famalicao Active 83 / 80 40% 1 28.08.2026 -
Toni Tamarit Alverca Active 125 / 118 40% 1 27.08.2026 -
Mateus Mané Manchester United Active 133 / 123 40% 1 16.08.2026 -
Lucas Agazzi Defensor Sporting Active 113 / 122 40% 1 03.08.2026 -
Stefanos Tzimas Brighton Active 134 / 128 40% 1 03.08.2026 -
Yeimar Mosquera Vitoria Guimaraes Active 110 / 100 40% 1 01.08.2026 -